Friday, November 24, 2017, 12:22 AM GMT
Back to Local

CXHF, High Falls , Que.

Location: , , Canada Lat: 45.833
Local Time: 12:22 AM GMT ( 0:22 GMT) Lon: -75.65
Time Zone: GMT Elev: 623 ft

Show me the last for .
Show Coded

Time T Td Feel RH Dir Speed Gust Alt SLP Vis Weather Sky Remarks
2017-11-24 00:00 28 25 - 88 - - - - - 0 1-hr Precip Total: 0.04"
2017-11-23 23:00 28 24 - 84 - - - - - 0 None
2017-11-23 22:00 28 26 - 90 - - - - - 0 None
2017-11-23 21:00 27 22 - 79 - - - - - 0 None
2017-11-23 20:00 26 21 - 80 - - - - - 0 None
2017-11-23 19:00 26 20 - 77 - - - - - 0 None
2017-11-23 18:00 25 19 - 76 - - - - - 0 None
2017-11-23 17:00 24 18 - 78 - - - - - 0 None
2017-11-23 16:00 23 19 - 82 - - - - - 0 None
2017-11-23 15:00 20 16 - 83 - - - - - 0 None
2017-11-23 14:00 18 15 - 90 - - - - - 0 None
2017-11-23 13:00 15 14 - 93 - - - - - 0 None
2017-11-23 12:00 14 13 - 93 - - - - - 0 None
2017-11-23 11:00 15 13 - 93 - - - - - 0 None
2017-11-23 09:00 15 11 - 86 - - - - - 0 None
2017-11-23 08:00 16 12 - 82 - - - - - 0 None
2017-11-23 07:00 18 13 - 81 - - - - - 0 None
2017-11-23 06:00 19 14 - 79 - - - - - 0 None
2017-11-23 05:00 20 15 - 80 - - - - - 0 None
2017-11-23 04:00 20 15 - 81 - - - - - 0 None
2017-11-23 03:00 22 15 - 75 - - - - - 0 None
2017-11-23 02:00 22 13 - 68 - - - - - 0 None
2017-11-23 01:00 21 12 - 69 - - - - - 0 None

Support USWX by starting your Amazon purchase here.